sensor_id;sensor_type;location;lat;lon;timestamp;P1;durP1;ratioP1;P2;durP2;ratioP2
5416;SDS011;2731;50.754;12.990;2024-03-08T00:00:56;33.50;;;19.70;;
5416;SDS011;2731;50.754;12.990;2024-03-08T00:03:24;35.38;;;19.17;;
5416;SDS011;2731;50.754;12.990;2024-03-08T00:06:10;37.40;;;19.90;;
5416;SDS011;2731;50.754;12.990;2024-03-08T00:08:56;35.88;;;21.08;;
5416;SDS011;2731;50.754;12.990;2024-03-08T00:11:41;36.80;;;20.73;;
5416;SDS011;2731;50.754;12.990;2024-03-08T00:14:28;39.42;;;21.08;;
5416;SDS011;2731;50.754;12.990;2024-03-08T00:17:16;37.70;;;20.60;;
5416;SDS011;2731;50.754;12.990;2024-03-08T00:19:43;41.90;;;22.40;;
5416;SDS011;2731;50.754;12.990;2024-03-08T00:22:29;38.15;;;21.02;;
5416;SDS011;2731;50.754;12.990;2024-03-08T00:25:16;37.65;;;19.30;;
5416;SDS011;2731;50.754;12.990;2024-03-08T00:28:03;41.92;;;20.33;;
5416;SDS011;2731;50.754;12.990;2024-03-08T00:30:49;42.58;;;21.13;;
5416;SDS011;2731;50.754;12.990;2024-03-08T00:33:35;43.50;;;20.90;;
5416;SDS011;2731;50.754;12.990;2024-03-08T00:36:22;41.65;;;22.45;;
5416;SDS011;2731;50.754;12.990;2024-03-08T00:39:08;41.38;;;21.95;;
5416;SDS011;2731;50.754;12.990;2024-03-08T00:41:54;39.45;;;21.05;;
5416;SDS011;2731;50.754;12.990;2024-03-08T00:44:40;41.22;;;21.58;;
5416;SDS011;2731;50.754;12.990;2024-03-08T00:47:27;41.22;;;22.63;;
5416;SDS011;2731;50.754;12.990;2024-03-08T00:50:12;41.45;;;22.50;;
5416;SDS011;2731;50.754;12.990;2024-03-08T00:52:56;42.20;;;21.70;;
5416;SDS011;2731;50.754;12.990;2024-03-08T00:55:43;46.10;;;23.05;;
5416;SDS011;2731;50.754;12.990;2024-03-08T00:58:31;43.47;;;22.52;;
5416;SDS011;2731;50.754;12.990;2024-03-08T01:00:58;39.42;;;20.98;;
5416;SDS011;2731;50.754;12.990;2024-03-08T01:03:44;43.70;;;21.98;;
5416;SDS011;2731;50.754;12.990;2024-03-08T01:06:29;42.15;;;21.65;;
5416;SDS011;2731;50.754;12.990;2024-03-08T01:09:15;44.40;;;23.20;;
5416;SDS011;2731;50.754;12.990;2024-03-08T01:12:02;43.72;;;22.25;;
5416;SDS011;2731;50.754;12.990;2024-03-08T01:14:51;40.80;;;22.10;;
5416;SDS011;2731;50.754;12.990;2024-03-08T01:17:19;43.65;;;23.65;;
5416;SDS011;2731;50.754;12.990;2024-03-08T01:19:48;43.17;;;24.30;;
5416;SDS011;2731;50.754;12.990;2024-03-08T01:22:16;49.03;;;23.85;;
5416;SDS011;2731;50.754;12.990;2024-03-08T01:25:02;41.28;;;21.58;;
5416;SDS011;2731;50.754;12.990;2024-03-08T01:27:49;44.10;;;24.17;;
5416;SDS011;2731;50.754;12.990;2024-03-08T01:30:34;43.05;;;23.17;;
5416;SDS011;2731;50.754;12.990;2024-03-08T01:33:23;43.05;;;22.65;;
5416;SDS011;2731;50.754;12.990;2024-03-08T01:36:09;47.35;;;22.33;;
5416;SDS011;2731;50.754;12.990;2024-03-08T01:38:54;48.63;;;24.55;;
5416;SDS011;2731;50.754;12.990;2024-03-08T01:41:50;45.63;;;24.08;;
5416;SDS011;2731;50.754;12.990;2024-03-08T01:44:48;52.90;;;24.70;;
5416;SDS011;2731;50.754;12.990;2024-03-08T01:47:33;50.17;;;26.05;;
5416;SDS011;2731;50.754;12.990;2024-03-08T01:50:19;45.95;;;24.42;;
5416;SDS011;2731;50.754;12.990;2024-03-08T01:53:06;48.65;;;25.63;;
5416;SDS011;2731;50.754;12.990;2024-03-08T01:55:52;49.95;;;25.90;;
5416;SDS011;2731;50.754;12.990;2024-03-08T01:58:59;48.25;;;25.70;;
5416;SDS011;2731;50.754;12.990;2024-03-08T02:01:45;45.72;;;24.33;;
5416;SDS011;2731;50.754;12.990;2024-03-08T02:04:31;51.10;;;25.35;;
5416;SDS011;2731;50.754;12.990;2024-03-08T02:07:18;48.25;;;25.02;;
5416;SDS011;2731;50.754;12.990;2024-03-08T02:10:04;50.38;;;25.83;;
5416;SDS011;2731;50.754;12.990;2024-03-08T02:12:51;49.38;;;25.25;;
5416;SDS011;2731;50.754;12.990;2024-03-08T02:15:17;46.40;;;23.15;;
5416;SDS011;2731;50.754;12.990;2024-03-08T02:18:05;43.65;;;22.67;;
5416;SDS011;2731;50.754;12.990;2024-03-08T02:20:52;46.08;;;24.52;;
5416;SDS011;2731;50.754;12.990;2024-03-08T02:23:38;44.83;;;23.13;;
5416;SDS011;2731;50.754;12.990;2024-03-08T02:26:25;45.28;;;23.65;;
5416;SDS011;2731;50.754;12.990;2024-03-08T02:29:10;54.17;;;26.08;;
5416;SDS011;2731;50.754;12.990;2024-03-08T02:31:57;52.92;;;25.27;;
5416;SDS011;2731;50.754;12.990;2024-03-08T02:34:27;52.75;;;25.92;;
5416;SDS011;2731;50.754;12.990;2024-03-08T02:37:16;56.78;;;25.88;;
5416;SDS011;2731;50.754;12.990;2024-03-08T02:40:06;50.65;;;24.40;;
5416;SDS011;2731;50.754;12.990;2024-03-08T02:42:58;53.35;;;26.00;;
5416;SDS011;2731;50.754;12.990;2024-03-08T02:45:44;46.83;;;23.63;;
5416;SDS011;2731;50.754;12.990;2024-03-08T02:48:32;49.03;;;24.45;;
5416;SDS011;2731;50.754;12.990;2024-03-08T02:51:00;49.50;;;24.95;;
5416;SDS011;2731;50.754;12.990;2024-03-08T02:53:46;49.95;;;24.80;;
5416;SDS011;2731;50.754;12.990;2024-03-08T02:56:35;48.83;;;26.27;;
5416;SDS011;2731;50.754;12.990;2024-03-08T02:59:21;52.67;;;26.23;;
5416;SDS011;2731;50.754;12.990;2024-03-08T03:02:07;56.80;;;27.02;;
5416;SDS011;2731;50.754;12.990;2024-03-08T03:04:55;52.53;;;25.33;;
5416;SDS011;2731;50.754;12.990;2024-03-08T03:07:40;46.92;;;23.92;;
5416;SDS011;2731;50.754;12.990;2024-03-08T03:10:27;47.13;;;24.70;;
5416;SDS011;2731;50.754;12.990;2024-03-08T03:13:14;47.33;;;26.23;;
5416;SDS011;2731;50.754;12.990;2024-03-08T03:16:00;51.30;;;24.63;;
5416;SDS011;2731;50.754;12.990;2024-03-08T03:18:57;53.28;;;25.90;;
5416;SDS011;2731;50.754;12.990;2024-03-08T03:21:55;57.17;;;26.45;;
5416;SDS011;2731;50.754;12.990;2024-03-08T03:24:43;50.72;;;26.45;;
5416;SDS011;2731;50.754;12.990;2024-03-08T03:27:09;43.50;;;23.20;;
5416;SDS011;2731;50.754;12.990;2024-03-08T03:30:01;54.10;;;27.90;;
5416;SDS011;2731;50.754;12.990;2024-03-08T03:33:07;46.35;;;23.48;;
5416;SDS011;2731;50.754;12.990;2024-03-08T03:35:55;46.90;;;24.17;;
5416;SDS011;2731;50.754;12.990;2024-03-08T03:38:42;53.53;;;25.67;;
5416;SDS011;2731;50.754;12.990;2024-03-08T03:41:30;55.38;;;25.75;;
5416;SDS011;2731;50.754;12.990;2024-03-08T03:43:57;50.55;;;25.33;;
5416;SDS011;2731;50.754;12.990;2024-03-08T03:46:46;48.63;;;24.55;;
5416;SDS011;2731;50.754;12.990;2024-03-08T03:49:32;51.50;;;27.42;;
5416;SDS011;2731;50.754;12.990;2024-03-08T03:52:19;58.25;;;28.00;;
5416;SDS011;2731;50.754;12.990;2024-03-08T03:55:16;54.78;;;25.45;;
5416;SDS011;2731;50.754;12.990;2024-03-08T03:58:06;45.58;;;24.02;;
5416;SDS011;2731;50.754;12.990;2024-03-08T04:00:44;49.22;;;25.33;;
5416;SDS011;2731;50.754;12.990;2024-03-08T04:03:31;46.63;;;24.90;;
5416;SDS011;2731;50.754;12.990;2024-03-08T04:06:17;42.50;;;22.13;;
5416;SDS011;2731;50.754;12.990;2024-03-08T04:09:04;47.63;;;23.55;;
5416;SDS011;2731;50.754;12.990;2024-03-08T04:11:48;51.20;;;25.38;;
5416;SDS011;2731;50.754;12.990;2024-03-08T04:14:36;54.20;;;26.15;;
5416;SDS011;2731;50.754;12.990;2024-03-08T04:17:24;51.85;;;24.33;;
5416;SDS011;2731;50.754;12.990;2024-03-08T04:19:51;48.85;;;26.60;;
5416;SDS011;2731;50.754;12.990;2024-03-08T04:22:19;52.75;;;26.40;;
5416;SDS011;2731;50.754;12.990;2024-03-08T04:25:08;45.63;;;23.40;;
5416;SDS011;2731;50.754;12.990;2024-03-08T04:27:54;47.20;;;23.45;;
5416;SDS011;2731;50.754;12.990;2024-03-08T04:30:41;51.47;;;26.58;;
5416;SDS011;2731;50.754;12.990;2024-03-08T04:33:25;52.17;;;25.65;;
5416;SDS011;2731;50.754;12.990;2024-03-08T04:36:12;46.58;;;23.73;;
5416;SDS011;2731;50.754;12.990;2024-03-08T04:38:58;48.40;;;24.38;;
5416;SDS011;2731;50.754;12.990;2024-03-08T04:41:25;48.38;;;24.17;;
5416;SDS011;2731;50.754;12.990;2024-03-08T04:43:53;54.38;;;26.88;;
5416;SDS011;2731;50.754;12.990;2024-03-08T04:46:41;54.40;;;27.40;;
5416;SDS011;2731;50.754;12.990;2024-03-08T04:49:26;53.75;;;27.52;;
5416;SDS011;2731;50.754;12.990;2024-03-08T04:52:11;60.10;;;27.83;;
5416;SDS011;2731;50.754;12.990;2024-03-08T04:54:56;55.88;;;28.85;;
5416;SDS011;2731;50.754;12.990;2024-03-08T04:57:44;56.97;;;28.67;;
5416;SDS011;2731;50.754;12.990;2024-03-08T05:00:31;50.70;;;26.13;;
5416;SDS011;2731;50.754;12.990;2024-03-08T05:02:59;55.55;;;28.48;;
5416;SDS011;2731;50.754;12.990;2024-03-08T05:05:46;52.40;;;25.08;;
5416;SDS011;2731;50.754;12.990;2024-03-08T05:08:32;49.40;;;23.70;;
5416;SDS011;2731;50.754;12.990;2024-03-08T05:11:19;50.10;;;25.60;;
5416;SDS011;2731;50.754;12.990;2024-03-08T05:14:06;53.85;;;25.65;;
5416;SDS011;2731;50.754;12.990;2024-03-08T05:16:55;48.95;;;24.77;;
5416;SDS011;2731;50.754;12.990;2024-03-08T05:19:51;45.28;;;24.02;;
5416;SDS011;2731;50.754;12.990;2024-03-08T05:22:38;50.65;;;25.27;;
5416;SDS011;2731;50.754;12.990;2024-03-08T05:25:26;49.65;;;25.00;;
5416;SDS011;2731;50.754;12.990;2024-03-08T05:28:10;54.30;;;27.00;;
5416;SDS011;2731;50.754;12.990;2024-03-08T05:30:57;51.25;;;25.00;;
5416;SDS011;2731;50.754;12.990;2024-03-08T05:33:42;51.67;;;25.70;;
5416;SDS011;2731;50.754;12.990;2024-03-08T05:36:38;49.35;;;25.15;;
5416;SDS011;2731;50.754;12.990;2024-03-08T05:39:19;56.10;;;25.50;;
5416;SDS011;2731;50.754;12.990;2024-03-08T05:42:07;50.97;;;24.08;;
5416;SDS011;2731;50.754;12.990;2024-03-08T05:44:53;48.85;;;23.73;;
5416;SDS011;2731;50.754;12.990;2024-03-08T05:47:23;43.42;;;23.83;;
5416;SDS011;2731;50.754;12.990;2024-03-08T05:49:50;45.80;;;24.40;;
5416;SDS011;2731;50.754;12.990;2024-03-08T05:52:39;51.33;;;25.33;;
5416;SDS011;2731;50.754;12.990;2024-03-08T05:55:25;58.95;;;27.45;;
5416;SDS011;2731;50.754;12.990;2024-03-08T05:58:13;59.90;;;27.45;;
5416;SDS011;2731;50.754;12.990;2024-03-08T06:01:00;49.88;;;26.08;;
5416;SDS011;2731;50.754;12.990;2024-03-08T06:03:47;51.28;;;25.88;;
5416;SDS011;2731;50.754;12.990;2024-03-08T06:06:34;52.60;;;27.23;;
5416;SDS011;2731;50.754;12.990;2024-03-08T06:09:02;58.50;;;27.85;;
5416;SDS011;2731;50.754;12.990;2024-03-08T06:11:57;56.03;;;27.35;;
5416;SDS011;2731;50.754;12.990;2024-03-08T06:14:43;48.65;;;26.52;;
5416;SDS011;2731;50.754;12.990;2024-03-08T06:17:30;56.28;;;28.50;;
5416;SDS011;2731;50.754;12.990;2024-03-08T06:20:09;50.35;;;24.95;;
5416;SDS011;2731;50.754;12.990;2024-03-08T06:22:56;50.70;;;25.50;;
5416;SDS011;2731;50.754;12.990;2024-03-08T06:25:44;47.58;;;23.63;;
5416;SDS011;2731;50.754;12.990;2024-03-08T06:28:31;50.58;;;26.40;;
5416;SDS011;2731;50.754;12.990;2024-03-08T06:31:18;55.65;;;25.85;;
5416;SDS011;2731;50.754;12.990;2024-03-08T06:34:05;55.17;;;25.67;;
5416;SDS011;2731;50.754;12.990;2024-03-08T06:36:33;47.05;;;25.83;;
5416;SDS011;2731;50.754;12.990;2024-03-08T06:39:21;50.67;;;25.75;;
5416;SDS011;2731;50.754;12.990;2024-03-08T06:41:52;55.17;;;26.90;;
5416;SDS011;2731;50.754;12.990;2024-03-08T06:44:38;49.47;;;25.23;;
5416;SDS011;2731;50.754;12.990;2024-03-08T06:47:35;56.10;;;28.10;;
5416;SDS011;2731;50.754;12.990;2024-03-08T06:50:21;56.92;;;26.80;;
5416;SDS011;2731;50.754;12.990;2024-03-08T06:53:07;54.35;;;26.65;;
5416;SDS011;2731;50.754;12.990;2024-03-08T06:55:53;46.60;;;24.77;;
5416;SDS011;2731;50.754;12.990;2024-03-08T06:58:21;44.75;;;23.63;;
5416;SDS011;2731;50.754;12.990;2024-03-08T07:01:08;53.38;;;25.95;;
5416;SDS011;2731;50.754;12.990;2024-03-08T07:03:39;50.03;;;25.98;;
5416;SDS011;2731;50.754;12.990;2024-03-08T07:06:30;46.63;;;23.67;;
5416;SDS011;2731;50.754;12.990;2024-03-08T07:09:18;49.05;;;25.02;;
5416;SDS011;2731;50.754;12.990;2024-03-08T07:12:04;41.40;;;22.10;;
5416;SDS011;2731;50.754;12.990;2024-03-08T07:14:51;46.90;;;24.92;;
5416;SDS011;2731;50.754;12.990;2024-03-08T07:17:34;42.22;;;24.92;;
5416;SDS011;2731;50.754;12.990;2024-03-08T07:20:19;45.25;;;24.13;;
5416;SDS011;2731;50.754;12.990;2024-03-08T07:23:06;47.42;;;23.30;;
5416;SDS011;2731;50.754;12.990;2024-03-08T07:25:53;44.70;;;23.33;;
5416;SDS011;2731;50.754;12.990;2024-03-08T07:28:41;49.08;;;24.15;;
5416;SDS011;2731;50.754;12.990;2024-03-08T07:31:27;47.50;;;23.67;;
5416;SDS011;2731;50.754;12.990;2024-03-08T07:34:32;47.42;;;22.77;;
5416;SDS011;2731;50.754;12.990;2024-03-08T07:37:00;45.80;;;24.98;;
5416;SDS011;2731;50.754;12.990;2024-03-08T07:39:49;46.35;;;22.48;;
5416;SDS011;2731;50.754;12.990;2024-03-08T07:42:34;38.42;;;20.90;;
5416;SDS011;2731;50.754;12.990;2024-03-08T07:45:22;41.67;;;22.63;;
5416;SDS011;2731;50.754;12.990;2024-03-08T07:48:10;48.70;;;23.95;;
5416;SDS011;2731;50.754;12.990;2024-03-08T07:50:57;44.20;;;23.83;;
5416;SDS011;2731;50.754;12.990;2024-03-08T07:53:45;43.05;;;22.27;;
5416;SDS011;2731;50.754;12.990;2024-03-08T07:56:12;38.78;;;21.13;;
5416;SDS011;2731;50.754;12.990;2024-03-08T07:59:03;47.03;;;22.58;;
5416;SDS011;2731;50.754;12.990;2024-03-08T08:01:49;38.60;;;20.38;;
5416;SDS011;2731;50.754;12.990;2024-03-08T08:04:34;50.38;;;24.67;;
5416;SDS011;2731;50.754;12.990;2024-03-08T08:07:20;42.65;;;22.42;;
5416;SDS011;2731;50.754;12.990;2024-03-08T08:10:08;55.88;;;26.70;;
5416;SDS011;2731;50.754;12.990;2024-03-08T08:13:05;42.58;;;22.67;;
5416;SDS011;2731;50.754;12.990;2024-03-08T08:15:51;50.13;;;24.67;;
5416;SDS011;2731;50.754;12.990;2024-03-08T08:18:50;44.08;;;23.67;;
5416;SDS011;2731;50.754;12.990;2024-03-08T08:21:39;44.92;;;24.10;;
5416;SDS011;2731;50.754;12.990;2024-03-08T08:24:06;41.72;;;22.08;;
5416;SDS011;2731;50.754;12.990;2024-03-08T08:26:52;42.60;;;23.35;;
5416;SDS011;2731;50.754;12.990;2024-03-08T08:29:38;37.63;;;22.08;;
5416;SDS011;2731;50.754;12.990;2024-03-08T08:32:26;39.33;;;21.50;;
5416;SDS011;2731;50.754;12.990;2024-03-08T08:35:12;42.95;;;21.30;;
5416;SDS011;2731;50.754;12.990;2024-03-08T08:38:01;35.25;;;20.05;;
5416;SDS011;2731;50.754;12.990;2024-03-08T08:40:48;39.00;;;20.38;;
5416;SDS011;2731;50.754;12.990;2024-03-08T08:43:16;37.05;;;19.70;;
5416;SDS011;2731;50.754;12.990;2024-03-08T08:46:03;44.05;;;22.75;;
5416;SDS011;2731;50.754;12.990;2024-03-08T08:48:56;39.40;;;22.27;;
5416;SDS011;2731;50.754;12.990;2024-03-08T08:51:48;39.83;;;20.52;;
5416;SDS011;2731;50.754;12.990;2024-03-08T08:54:16;41.10;;;20.73;;
5416;SDS011;2731;50.754;12.990;2024-03-08T08:57:03;28.95;;;16.80;;
5416;SDS011;2731;50.754;12.990;2024-03-08T08:59:53;33.70;;;18.25;;
5416;SDS011;2731;50.754;12.990;2024-03-08T09:02:43;31.83;;;16.58;;
5416;SDS011;2731;50.754;12.990;2024-03-08T09:05:32;32.28;;;17.33;;
5416;SDS011;2731;50.754;12.990;2024-03-08T09:08:19;29.70;;;15.90;;
5416;SDS011;2731;50.754;12.990;2024-03-08T09:11:05;32.72;;;17.20;;
5416;SDS011;2731;50.754;12.990;2024-03-08T09:13:52;30.70;;;16.08;;
5416;SDS011;2731;50.754;12.990;2024-03-08T09:16:19;26.50;;;14.63;;
5416;SDS011;2731;50.754;12.990;2024-03-08T09:19:05;29.05;;;16.42;;
5416;SDS011;2731;50.754;12.990;2024-03-08T09:21:52;25.60;;;15.32;;
5416;SDS011;2731;50.754;12.990;2024-03-08T09:24:38;30.13;;;15.38;;
5416;SDS011;2731;50.754;12.990;2024-03-08T09:27:29;27.08;;;15.85;;
5416;SDS011;2731;50.754;12.990;2024-03-08T09:30:15;27.83;;;15.65;;
5416;SDS011;2731;50.754;12.990;2024-03-08T09:33:05;30.60;;;15.32;;
5416;SDS011;2731;50.754;12.990;2024-03-08T09:35:33;31.00;;;16.48;;
5416;SDS011;2731;50.754;12.990;2024-03-08T09:38:02;31.50;;;15.70;;
5416;SDS011;2731;50.754;12.990;2024-03-08T09:40:34;28.40;;;15.77;;
5416;SDS011;2731;50.754;12.990;2024-03-08T09:43:01;24.80;;;14.52;;
5416;SDS011;2731;50.754;12.990;2024-03-08T09:45:30;33.08;;;18.25;;
5416;SDS011;2731;50.754;12.990;2024-03-08T09:48:00;29.55;;;16.38;;
5416;SDS011;2731;50.754;12.990;2024-03-08T09:50:28;26.30;;;15.57;;
5416;SDS011;2731;50.754;12.990;2024-03-08T09:52:58;27.67;;;15.70;;
5416;SDS011;2731;50.754;12.990;2024-03-08T09:55:26;31.85;;;14.80;;
5416;SDS011;2731;50.754;12.990;2024-03-08T09:58:05;26.42;;;14.90;;
5416;SDS011;2731;50.754;12.990;2024-03-08T10:00:51;29.45;;;15.90;;
5416;SDS011;2731;50.754;12.990;2024-03-08T10:03:21;27.20;;;15.30;;
5416;SDS011;2731;50.754;12.990;2024-03-08T10:05:49;25.58;;;13.93;;
5416;SDS011;2731;50.754;12.990;2024-03-08T10:08:16;26.38;;;13.77;;
5416;SDS011;2731;50.754;12.990;2024-03-08T10:10:54;26.48;;;15.98;;
5416;SDS011;2731;50.754;12.990;2024-03-08T10:13:21;26.25;;;14.45;;
5416;SDS011;2731;50.754;12.990;2024-03-08T10:15:48;26.73;;;15.40;;
5416;SDS011;2731;50.754;12.990;2024-03-08T10:18:20;28.48;;;15.20;;
5416;SDS011;2731;50.754;12.990;2024-03-08T10:21:10;22.42;;;14.05;;
5416;SDS011;2731;50.754;12.990;2024-03-08T10:23:39;25.50;;;14.95;;
5416;SDS011;2731;50.754;12.990;2024-03-08T10:26:18;25.45;;;14.93;;
5416;SDS011;2731;50.754;12.990;2024-03-08T10:28:49;24.55;;;13.88;;
5416;SDS011;2731;50.754;12.990;2024-03-08T10:31:16;25.55;;;14.77;;
5416;SDS011;2731;50.754;12.990;2024-03-08T10:33:43;25.33;;;13.75;;
5416;SDS011;2731;50.754;12.990;2024-03-08T10:36:13;22.90;;;14.13;;
5416;SDS011;2731;50.754;12.990;2024-03-08T10:38:41;25.20;;;15.07;;
5416;SDS011;2731;50.754;12.990;2024-03-08T10:41:26;27.45;;;13.82;;
5416;SDS011;2731;50.754;12.990;2024-03-08T10:49:15;24.48;;;14.48;;
5416;SDS011;2731;50.754;12.990;2024-03-08T10:51:44;23.15;;;14.23;;
5416;SDS011;2731;50.754;12.990;2024-03-08T10:54:12;23.80;;;14.05;;
5416;SDS011;2731;50.754;12.990;2024-03-08T10:56:42;23.42;;;13.52;;
5416;SDS011;2731;50.754;12.990;2024-03-08T10:59:09;28.60;;;14.13;;
5416;SDS011;2731;50.754;12.990;2024-03-08T11:01:36;25.10;;;13.70;;
5416;SDS011;2731;50.754;12.990;2024-03-08T11:04:04;22.80;;;14.23;;
5416;SDS011;2731;50.754;12.990;2024-03-08T11:09:03;28.05;;;14.70;;
5416;SDS011;2731;50.754;12.990;2024-03-08T11:11:39;21.52;;;12.88;;
5416;SDS011;2731;50.754;12.990;2024-03-08T11:14:41;21.85;;;13.48;;
5416;SDS011;2731;50.754;12.990;2024-03-08T11:16:56;22.75;;;13.50;;
5416;SDS011;2731;50.754;12.990;2024-03-08T11:19:24;22.95;;;13.38;;
5416;SDS011;2731;50.754;12.990;2024-03-08T11:21:58;22.02;;;13.52;;
5416;SDS011;2731;50.754;12.990;2024-03-08T11:24:39;20.15;;;13.65;;
5416;SDS011;2731;50.754;12.990;2024-03-08T11:27:13;21.15;;;13.70;;
5416;SDS011;2731;50.754;12.990;2024-03-08T11:29:39;21.30;;;14.05;;
5416;SDS011;2731;50.754;12.990;2024-03-08T11:32:06;22.35;;;14.10;;
5416;SDS011;2731;50.754;12.990;2024-03-08T11:34:37;21.42;;;13.10;;
5416;SDS011;2731;50.754;12.990;2024-03-08T11:37:04;21.70;;;13.73;;
5416;SDS011;2731;50.754;12.990;2024-03-08T11:39:38;24.27;;;14.55;;
5416;SDS011;2731;50.754;12.990;2024-03-08T11:42:06;23.63;;;14.32;;
5416;SDS011;2731;50.754;12.990;2024-03-08T11:44:33;20.48;;;12.63;;
5416;SDS011;2731;50.754;12.990;2024-03-08T11:47:02;19.48;;;12.77;;
5416;SDS011;2731;50.754;12.990;2024-03-08T11:49:31;23.48;;;14.48;;
5416;SDS011;2731;50.754;12.990;2024-03-08T11:52:00;22.75;;;13.90;;
5416;SDS011;2731;50.754;12.990;2024-03-08T11:54:28;18.80;;;12.55;;
5416;SDS011;2731;50.754;12.990;2024-03-08T11:56:56;21.73;;;12.90;;
5416;SDS011;2731;50.754;12.990;2024-03-08T11:59:28;18.00;;;11.80;;
5416;SDS011;2731;50.754;12.990;2024-03-08T12:01:59;22.85;;;13.02;;
5416;SDS011;2731;50.754;12.990;2024-03-08T12:04:36;23.95;;;13.57;;
5416;SDS011;2731;50.754;12.990;2024-03-08T12:07:05;20.05;;;13.07;;
5416;SDS011;2731;50.754;12.990;2024-03-08T12:09:38;21.73;;;13.00;;
5416;SDS011;2731;50.754;12.990;2024-03-08T12:12:11;23.95;;;12.75;;
5416;SDS011;2731;50.754;12.990;2024-03-08T12:14:42;19.30;;;11.70;;
5416;SDS011;2731;50.754;12.990;2024-03-08T12:17:10;20.80;;;13.18;;
5416;SDS011;2731;50.754;12.990;2024-03-08T12:19:39;21.38;;;12.10;;
5416;SDS011;2731;50.754;12.990;2024-03-08T12:22:09;22.48;;;13.57;;
5416;SDS011;2731;50.754;12.990;2024-03-08T12:24:35;22.13;;;12.88;;
5416;SDS011;2731;50.754;12.990;2024-03-08T12:27:17;20.58;;;13.45;;
5416;SDS011;2731;50.754;12.990;2024-03-08T12:29:44;19.00;;;12.00;;
5416;SDS011;2731;50.754;12.990;2024-03-08T12:32:12;16.50;;;11.40;;
5416;SDS011;2731;50.754;12.990;2024-03-08T12:34:39;19.38;;;12.50;;
5416;SDS011;2731;50.754;12.990;2024-03-08T12:37:08;20.48;;;13.02;;
5416;SDS011;2731;50.754;12.990;2024-03-08T12:39:40;19.65;;;12.27;;
5416;SDS011;2731;50.754;12.990;2024-03-08T12:42:06;20.33;;;11.52;;
5416;SDS011;2731;50.754;12.990;2024-03-08T12:44:38;21.58;;;11.88;;
5416;SDS011;2731;50.754;12.990;2024-03-08T12:47:09;19.98;;;11.77;;
5416;SDS011;2731;50.754;12.990;2024-03-08T12:49:38;18.85;;;12.30;;
5416;SDS011;2731;50.754;12.990;2024-03-08T12:52:08;19.67;;;12.32;;
5416;SDS011;2731;50.754;12.990;2024-03-08T12:54:37;23.33;;;12.43;;
5416;SDS011;2731;50.754;12.990;2024-03-08T12:57:04;22.10;;;11.88;;
5416;SDS011;2731;50.754;12.990;2024-03-08T12:59:31;19.05;;;12.30;;
5416;SDS011;2731;50.754;12.990;2024-03-08T13:01:57;24.67;;;13.98;;
5416;SDS011;2731;50.754;12.990;2024-03-08T13:04:25;17.35;;;11.55;;
5416;SDS011;2731;50.754;12.990;2024-03-08T13:06:52;27.17;;;14.80;;
5416;SDS011;2731;50.754;12.990;2024-03-08T13:09:20;28.58;;;15.80;;
5416;SDS011;2731;50.754;12.990;2024-03-08T13:11:48;27.27;;;16.33;;
5416;SDS011;2731;50.754;12.990;2024-03-08T13:14:15;28.42;;;16.65;;
5416;SDS011;2731;50.754;12.990;2024-03-08T13:16:41;24.92;;;14.82;;
5416;SDS011;2731;50.754;12.990;2024-03-08T13:19:13;25.05;;;16.52;;
5416;SDS011;2731;50.754;12.990;2024-03-08T13:21:42;25.83;;;15.35;;
5416;SDS011;2731;50.754;12.990;2024-03-08T13:24:17;25.88;;;14.43;;
5416;SDS011;2731;50.754;12.990;2024-03-08T13:26:49;22.73;;;14.25;;
5416;SDS011;2731;50.754;12.990;2024-03-08T13:29:17;24.65;;;13.32;;
5416;SDS011;2731;50.754;12.990;2024-03-08T13:31:47;22.13;;;14.10;;
5416;SDS011;2731;50.754;12.990;2024-03-08T13:34:19;22.63;;;15.03;;
5416;SDS011;2731;50.754;12.990;2024-03-08T13:36:54;22.98;;;15.07;;
5416;SDS011;2731;50.754;12.990;2024-03-08T13:39:24;25.08;;;14.85;;
5416;SDS011;2731;50.754;12.990;2024-03-08T13:41:52;22.88;;;15.60;;
5416;SDS011;2731;50.754;12.990;2024-03-08T13:44:19;25.05;;;15.52;;
5416;SDS011;2731;50.754;12.990;2024-03-08T13:46:48;24.77;;;15.73;;
5416;SDS011;2731;50.754;12.990;2024-03-08T13:49:17;20.15;;;13.82;;
5416;SDS011;2731;50.754;12.990;2024-03-08T13:54:35;25.13;;;15.07;;
5416;SDS011;2731;50.754;12.990;2024-03-08T13:57:03;27.35;;;15.45;;
5416;SDS011;2731;50.754;12.990;2024-03-08T13:59:34;19.20;;;12.75;;
5416;SDS011;2731;50.754;12.990;2024-03-08T14:02:06;24.17;;;15.07;;
5416;SDS011;2731;50.754;12.990;2024-03-08T14:04:36;22.15;;;15.30;;
5416;SDS011;2731;50.754;12.990;2024-03-08T14:07:10;24.45;;;16.33;;
5416;SDS011;2731;50.754;12.990;2024-03-08T14:09:40;24.03;;;15.60;;
5416;SDS011;2731;50.754;12.990;2024-03-08T14:12:08;25.45;;;15.45;;
5416;SDS011;2731;50.754;12.990;2024-03-08T14:14:35;24.48;;;15.05;;
5416;SDS011;2731;50.754;12.990;2024-03-08T14:17:03;21.17;;;13.18;;
5416;SDS011;2731;50.754;12.990;2024-03-08T14:19:34;20.52;;;13.35;;
5416;SDS011;2731;50.754;12.990;2024-03-08T14:22:00;24.23;;;15.18;;
5416;SDS011;2731;50.754;12.990;2024-03-08T14:24:29;19.92;;;14.05;;
5416;SDS011;2731;50.754;12.990;2024-03-08T14:26:56;21.75;;;14.00;;
5416;SDS011;2731;50.754;12.990;2024-03-08T14:29:26;24.67;;;17.20;;
5416;SDS011;2731;50.754;12.990;2024-03-08T14:31:55;24.23;;;15.50;;
5416;SDS011;2731;50.754;12.990;2024-03-08T14:34:27;21.02;;;14.65;;
5416;SDS011;2731;50.754;12.990;2024-03-08T14:36:54;25.38;;;15.75;;
5416;SDS011;2731;50.754;12.990;2024-03-08T14:39:21;24.00;;;15.95;;
5416;SDS011;2731;50.754;12.990;2024-03-08T14:41:51;25.83;;;16.13;;
5416;SDS011;2731;50.754;12.990;2024-03-08T14:44:19;24.10;;;15.57;;
5416;SDS011;2731;50.754;12.990;2024-03-08T14:46:46;23.00;;;15.55;;
5416;SDS011;2731;50.754;12.990;2024-03-08T14:49:13;23.90;;;17.02;;
5416;SDS011;2731;50.754;12.990;2024-03-08T14:51:39;25.70;;;14.98;;
5416;SDS011;2731;50.754;12.990;2024-03-08T14:54:05;19.90;;;14.95;;
5416;SDS011;2731;50.754;12.990;2024-03-08T14:56:33;25.17;;;15.90;;
5416;SDS011;2731;50.754;12.990;2024-03-08T14:59:00;22.35;;;15.15;;
5416;SDS011;2731;50.754;12.990;2024-03-08T15:01:26;23.23;;;15.55;;
5416;SDS011;2731;50.754;12.990;2024-03-08T15:03:56;23.58;;;16.45;;
5416;SDS011;2731;50.754;12.990;2024-03-08T15:06:28;23.33;;;15.43;;
5416;SDS011;2731;50.754;12.990;2024-03-08T15:08:56;25.30;;;15.82;;
5416;SDS011;2731;50.754;12.990;2024-03-08T15:11:23;24.15;;;15.93;;
5416;SDS011;2731;50.754;12.990;2024-03-08T15:13:50;27.38;;;14.98;;
5416;SDS011;2731;50.754;12.990;2024-03-08T15:16:18;25.15;;;16.65;;
5416;SDS011;2731;50.754;12.990;2024-03-08T15:18:48;22.67;;;14.57;;
5416;SDS011;2731;50.754;12.990;2024-03-08T15:21:16;24.40;;;15.60;;
5416;SDS011;2731;50.754;12.990;2024-03-08T15:23:44;24.25;;;14.77;;
5416;SDS011;2731;50.754;12.990;2024-03-08T15:26:17;28.20;;;16.27;;
5416;SDS011;2731;50.754;12.990;2024-03-08T15:28:44;21.67;;;14.15;;
5416;SDS011;2731;50.754;12.990;2024-03-08T15:31:20;24.20;;;15.15;;
5416;SDS011;2731;50.754;12.990;2024-03-08T15:33:51;29.08;;;16.98;;
5416;SDS011;2731;50.754;12.990;2024-03-08T15:36:27;26.73;;;15.70;;
5416;SDS011;2731;50.754;12.990;2024-03-08T15:39:02;28.88;;;16.25;;
5416;SDS011;2731;50.754;12.990;2024-03-08T15:41:36;22.38;;;14.60;;
5416;SDS011;2731;50.754;12.990;2024-03-08T15:44:02;24.40;;;15.80;;
5416;SDS011;2731;50.754;12.990;2024-03-08T15:46:31;33.97;;;17.48;;
5416;SDS011;2731;50.754;12.990;2024-03-08T15:48:59;24.67;;;14.80;;
5416;SDS011;2731;50.754;12.990;2024-03-08T15:51:28;24.40;;;14.80;;